Time;durP1;ratioP1;P1;durP2;ratioP2;P2;SDS_P1;SDS_P2;PMS_P1;PMS_P2;Temp;Humidity;BMP_temperature;BMP_pressure;BME280_temperature;BME280_humidity;BME280_pressure;Samples;Min_cycle;Max_cycle;Signal;HPM_P1;HPM_P2
2023/10/27 00:01:21;;;;;;;;;;;8.90;99.90;;;;;;5151611;27;19972;-75
2023/10/27 00:05:00;;;;;;;;;;;8.90;99.90;;;;;;5112676;27;19923;-76
2023/10/27 00:07:46;;;;;;;;;;;9.00;99.90;;;;;;5131939;27;19927;-76
2023/10/27 00:11:14;;;;;;;;;;;9.00;99.90;;;;;;5101767;27;19930;-76
2023/10/27 00:20:18;;;;;;;;;;;8.90;99.90;;;;;;5148375;27;19923;-76
2023/10/27 00:26:30;;;;;;;;;;;8.90;99.90;;;;;;5136141;27;19957;-76
2023/10/27 00:29:42;;;;;;;;;;;8.90;99.90;;;;;;5119799;27;19926;-75
2023/10/27 00:32:46;;;;;;;;;;;9.00;99.90;;;;;;5149290;27;20312;-76
2023/10/27 00:36:12;;;;;;;;;;;8.90;99.90;;;;;;5056651;27;19935;-75
2023/10/27 00:38:41;;;;;;;;;;;8.90;99.90;;;;;;5142004;27;19923;-75
2023/10/27 00:41:55;;;;;;;;;;;8.90;99.90;;;;;;5011411;28;19934;-76
2023/10/27 00:44:54;;;;;;;;;;;8.90;99.90;;;;;;5056256;28;19932;-77
2023/10/27 00:50:58;;;;;;;;;;;8.90;99.90;;;;;;5021805;28;19935;-76
2023/10/27 00:54:05;;;;;;;;;;;8.60;99.90;;;;;;5018611;28;19940;-76
2023/10/27 00:59:43;;;;;;;;;;;8.80;99.90;;;;;;5072151;27;19983;-76
2023/10/27 01:02:21;;;;;;;;;;;8.80;99.90;;;;;;5107883;27;19935;-77
2023/10/27 01:05:44;;;;;;;;;;;8.80;99.90;;;;;;5105692;27;19932;-76
2023/10/27 01:08:54;;;;;;;;;;;8.80;99.90;;;;;;5109995;27;20272;-76
2023/10/27 01:15:01;;;;;;;;;;;8.70;99.90;;;;;;5061267;27;19928;-77
2023/10/27 01:17:44;;;;;;;;;;;8.70;99.90;;;;;;5106654;27;19934;-76
2023/10/27 01:21:24;;;;;;;;;;;8.70;99.90;;;;;;5026688;27;20494;-76
2023/10/27 01:24:44;;;;;;;;;;;8.70;99.90;;;;;;5130083;27;19939;-77
2023/10/27 01:27:14;;;;;;;;;;;8.60;99.90;;;;;;5133334;27;19933;-75
2023/10/27 01:30:19;;;;;;;;;;;8.60;99.90;;;;;;5109423;27;20370;-75
2023/10/27 01:36:22;;;;;;;;;;;8.40;99.90;;;;;;5110400;27;21077;-77
2023/10/27 01:42:48;;;;;;;;;;;8.60;99.90;;;;;;5060382;27;19927;-75
2023/10/27 01:45:22;;;;;;;;;;;8.60;99.90;;;;;;5108424;27;19929;-75
2023/10/27 01:48:21;;;;;;;;;;;8.60;99.90;;;;;;5058580;28;19991;-76
2023/10/27 01:51:48;;;;;;;;;;;8.50;99.90;;;;;;5066255;28;20594;-75
2023/10/27 01:55:15;;;;;;;;;;;8.50;99.90;;;;;;5052918;28;20003;-77
2023/10/27 01:58:02;;;;;;;;;;;8.50;99.90;;;;;;5054406;28;20020;-75
2023/10/27 02:07:09;;;;;;;;;;;8.50;99.90;;;;;;5087427;28;21255;-76
2023/10/27 02:10:21;;;;;;;;;;;8.50;99.90;;;;;;5077058;28;19957;-77
2023/10/27 02:16:06;;;;;;;;;;;8.50;99.90;;;;;;5087626;28;20136;-77
2023/10/27 02:25:36;;;;;;;;;;;8.40;99.90;;;;;;5148407;27;19963;-77
2023/10/27 02:28:16;;;;;;;;;;;7.10;99.90;;;;;;5149824;27;19939;-76
2023/10/27 02:31:30;;;;;;;;;;;8.50;99.90;;;;;;5041024;27;19928;-76
2023/10/27 02:34:48;;;;;;;;;;;8.50;99.90;;;;;;5149286;27;19927;-75
2023/10/27 02:37:30;;;;;;;;;;;8.50;99.90;;;;;;5129454;27;20444;-76
2023/10/27 02:40:44;;;;;;;;;;;8.60;99.90;;;;;;5067079;27;20025;-77
2023/10/27 02:50:21;;;;;;;;;;;8.60;99.90;;;;;;5148303;27;20003;-75
2023/10/27 02:56:44;;;;;;;;;;;8.70;99.90;;;;;;5147812;27;20078;-75
2023/10/27 03:00:12;;;;;;;;;;;8.70;99.90;;;;;;5142961;27;19922;-75
2023/10/27 03:03:16;;;;;;;;;;;8.70;99.90;;;;;;5129382;27;20054;-76
2023/10/27 03:06:30;;;;;;;;;;;8.70;99.90;;;;;;5149638;27;19938;-75
2023/10/27 03:09:16;;;;;;;;;;;8.70;99.90;;;;;;5129168;27;19923;-75
2023/10/27 03:12:36;;;;;;;;;;;8.80;99.90;;;;;;5102548;27;19927;-76
2023/10/27 03:15:36;;;;;;;;;;;8.80;99.90;;;;;;5081157;28;19928;-76
2023/10/27 03:18:32;;;;;;;;;;;8.80;99.90;;;;;;5095957;28;19927;-76
2023/10/27 03:24:22;;;;;;;;;;;8.80;99.90;;;;;;5036798;28;19932;-77
2023/10/27 03:27:32;;;;;;;;;;;8.80;99.90;;;;;;5034077;28;19929;-76
2023/10/27 03:30:00;;;;;;;;;;;8.90;99.90;;;;;;5012618;28;19929;-77
2023/10/27 03:33:16;;;;;;;;;;;8.90;99.90;;;;;;5036367;28;20350;-75
2023/10/27 03:36:13;;;;;;;;;;;8.90;99.90;;;;;;5015281;28;19937;-76
2023/10/27 03:39:13;;;;;;;;;;;8.90;99.90;;;;;;5034745;28;20019;-75
2023/10/27 03:42:07;;;;;;;;;;;8.90;99.90;;;;;;5022152;28;19924;-75
2023/10/27 03:45:18;;;;;;;;;;;9.00;99.90;;;;;;4976822;28;20073;-75
2023/10/27 03:48:34;;;;;;;;;;;9.00;99.90;;;;;;4980313;28;19953;-74
2023/10/27 03:51:18;;;;;;;;;;;9.00;99.90;;;;;;4944803;28;19929;-74
2023/10/27 03:57:22;;;;;;;;;;;9.00;99.90;;;;;;5052805;28;20345;-77
2023/10/27 04:00:27;;;;;;;;;;;9.00;99.90;;;;;;5062098;28;20021;-75
2023/10/27 04:03:58;;;;;;;;;;;9.10;99.90;;;;;;5014128;28;20600;-75
2023/10/27 04:10:07;;;;;;;;;;;9.10;99.90;;;;;;5060985;28;19928;-75
2023/10/27 04:12:56;;;;;;;;;;;9.10;99.90;;;;;;5045353;28;20558;-75
2023/10/27 04:15:32;;;;;;;;;;;9.10;99.90;;;;;;5057158;28;19935;-75
2023/10/27 04:18:14;;;;;;;;;;;9.10;99.90;;;;;;5041435;28;20631;-76
2023/10/27 04:21:33;;;;;;;;;;;9.10;99.90;;;;;;5076281;27;19923;-76
2023/10/27 04:24:24;;;;;;;;;;;9.10;99.90;;;;;;5144000;27;19923;-76
2023/10/27 04:28:01;;;;;;;;;;;9.10;99.90;;;;;;5157796;27;19933;-75
2023/10/27 04:31:05;;;;;;;;;;;9.10;99.90;;;;;;5153511;27;19927;-76
2023/10/27 04:33:56;;;;;;;;;;;9.10;99.90;;;;;;5166546;27;19952;-75
2023/10/27 04:36:48;;;;;;;;;;;9.10;99.90;;;;;;5164723;27;19922;-77
2023/10/27 04:40:14;;;;;;;;;;;9.50;99.90;;;;;;5147594;27;20037;-76
2023/10/27 04:43:31;;;;;;;;;;;8.60;99.90;;;;;;5150068;27;20005;-76
2023/10/27 04:46:05;;;;;;;;;;;9.10;99.90;;;;;;5152408;27;19930;-77
2023/10/27 04:49:17;;;;;;;;;;;9.20;99.90;;;;;;5094820;27;19977;-75
2023/10/27 04:55:11;;;;;;;;;;;9.10;99.90;;;;;;5000057;28;19933;-75
2023/10/27 04:58:17;;;;;;;;;;;9.20;99.90;;;;;;4997940;28;19928;-76
2023/10/27 05:01:07;;;;;;;;;;;9.20;99.90;;;;;;5004170;28;20311;-75
2023/10/27 05:04:17;;;;;;;;;;;9.20;99.90;;;;;;5105637;27;20002;-75
2023/10/27 05:07:12;;;;;;;;;;;9.10;99.90;;;;;;5094356;27;19966;-76
2023/10/27 05:09:51;;;;;;;;;;;9.20;99.90;;;;;;5080799;27;19971;-75
2023/10/27 05:16:03;;;;;;;;;;;9.20;99.90;;;;;;5092171;27;19927;-75
2023/10/27 05:18:36;;;;;;;;;;;9.10;99.90;;;;;;5098718;27;19984;-76
2023/10/27 05:24:44;;;;;;;;;;;9.10;99.90;;;;;;5149724;27;19921;-76
2023/10/27 05:27:59;;;;;;;;;;;9.10;99.90;;;;;;5152777;27;19982;-75
2023/10/27 05:31:00;;;;;;;;;;;9.10;99.90;;;;;;5148962;27;20341;-77
2023/10/27 05:34:00;;;;;;;;;;;9.10;99.90;;;;;;5152052;27;19965;-77
2023/10/27 05:39:43;;;;;;;;;;;9.10;99.90;;;;;;5121984;27;19927;-75
2023/10/27 05:43:31;;;;;;;;;;;9.10;99.90;;;;;;5091583;27;20025;-75
2023/10/27 05:46:21;;;;;;;;;;;9.10;99.90;;;;;;5077888;28;20011;-74
2023/10/27 05:49:29;;;;;;;;;;;9.00;99.90;;;;;;5082483;28;19950;-75
2023/10/27 05:52:11;;;;;;;;;;;9.10;99.90;;;;;;5039762;28;20054;-75
2023/10/27 05:55:43;;;;;;;;;;;9.00;99.90;;;;;;5094206;27;20436;-75
2023/10/27 05:59:05;;;;;;;;;;;9.10;99.90;;;;;;5016386;28;19925;-75
2023/10/27 06:05:17;;;;;;;;;;;9.00;99.90;;;;;;5093560;28;19950;-76
2023/10/27 06:12:00;;;;;;;;;;;9.00;99.90;;;;;;5103899;28;20388;-75
2023/10/27 06:14:29;;;;;;;;;;;9.00;99.90;;;;;;5094144;28;19931;-75
2023/10/27 06:17:14;;;;;;;;;;;9.00;99.90;;;;;;5090548;28;20538;-78
2023/10/27 06:19:40;;;;;;;;;;;9.00;99.90;;;;;;5085730;28;19930;-75
2023/10/27 06:22:09;;;;;;;;;;;9.00;99.90;;;;;;5087507;28;19931;-75
2023/10/27 06:24:54;;;;;;;;;;;9.00;99.90;;;;;;5086893;28;19928;-76
2023/10/27 06:28:02;;;;;;;;;;;7.70;99.90;;;;;;5051811;28;19927;-77
2023/10/27 06:30:48;;;;;;;;;;;9.00;99.90;;;;;;5047045;28;20410;-76
2023/10/27 06:33:42;;;;;;;;;;;9.00;99.90;;;;;;5082481;28;19985;-75
2023/10/27 06:36:42;;;;;;;;;;;9.00;99.90;;;;;;5101061;28;20038;-76
2023/10/27 06:39:31;;;;;;;;;;;9.10;99.90;;;;;;5048477;28;19967;-75
2023/10/27 06:43:03;;;;;;;;;;;9.10;99.90;;;;;;5102422;28;19986;-75
2023/10/27 06:46:11;;;;;;;;;;;9.10;99.90;;;;;;5084448;27;19963;-75
2023/10/27 06:49:34;;;;;;;;;;;9.10;99.90;;;;;;5106654;27;20046;-75
2023/10/27 06:52:56;;;;;;;;;;;9.10;99.90;;;;;;5105076;27;20203;-76
2023/10/27 06:55:41;;;;;;;;;;;9.10;99.90;;;;;;5092654;28;20078;-75
2023/10/27 06:59:06;;;;;;;;;;;9.10;99.90;;;;;;5138527;27;19949;-76
2023/10/27 07:01:40;;;;;;;;;;;9.10;99.90;;;;;;5156624;27;19927;-77
2023/10/27 07:04:28;;;;;;;;;;;9.40;99.90;;;;;;5132347;27;19962;-76
2023/10/27 07:09:48;;;;;;;;;;;9.20;99.90;;;;;;5150590;27;19957;-75
2023/10/27 07:12:15;;;;;;;;;;;9.20;99.90;;;;;;5099387;27;21366;-78
2023/10/27 07:14:51;;;;;;;;;;;9.20;99.90;;;;;;5094786;27;19966;-76
2023/10/27 07:17:39;;;;;;;;;;;9.20;99.90;;;;;;4995551;28;19930;-75
2023/10/27 07:20:46;;;;;;;;;;;9.20;99.90;;;;;;5000026;28;19929;-75
2023/10/27 07:23:32;;;;;;;;;;;9.20;99.90;;;;;;4999734;28;20037;-75
2023/10/27 07:26:20;;;;;;;;;;;9.30;99.90;;;;;;4964891;28;20012;-77
2023/10/27 07:29:02;;;;;;;;;;;9.20;99.90;;;;;;4984103;28;19985;-75
2023/10/27 07:31:55;;;;;;;;;;;9.30;99.90;;;;;;5004735;28;19925;-75
2023/10/27 07:35:12;;;;;;;;;;;9.30;99.90;;;;;;4991153;28;19936;-76
2023/10/27 07:38:06;;;;;;;;;;;9.30;99.90;;;;;;4990147;28;19929;-75
2023/10/27 07:44:38;;;;;;;;;;;9.30;99.90;;;;;;5003942;28;20042;-74
2023/10/27 07:48:00;;;;;;;;;;;9.40;99.90;;;;;;4990294;28;19929;-75
2023/10/27 07:50:26;;;;;;;;;;;9.40;99.90;;;;;;5005707;28;19929;-76
2023/10/27 07:53:11;;;;;;;;;;;9.40;99.90;;;;;;4982272;28;20475;-75
2023/10/27 07:56:04;;;;;;;;;;;9.40;99.90;;;;;;5058889;28;20287;-75
2023/10/27 07:59:06;;;;;;;;;;;9.40;99.90;;;;;;5061292;28;20009;-75
2023/10/27 08:01:59;;;;;;;;;;;9.40;99.90;;;;;;5062449;28;19978;-75
2023/10/27 08:04:37;;;;;;;;;;;9.50;99.90;;;;;;5049023;28;19978;-76
2023/10/27 08:07:13;;;;;;;;;;;9.50;99.90;;;;;;4997729;28;19932;-76
2023/10/27 08:10:24;;;;;;;;;;;9.50;99.90;;;;;;5060007;28;19950;-75
2023/10/27 08:13:08;;;;;;;;;;;9.50;99.90;;;;;;5061275;28;19936;-76
2023/10/27 08:16:05;;;;;;;;;;;9.60;99.90;;;;;;5081431;28;19958;-74
2023/10/27 08:22:16;;;;;;;;;;;9.60;99.90;;;;;;5083369;28;20013;-75
2023/10/27 08:25:40;;;;;;;;;;;9.70;99.90;;;;;;5082955;28;19962;-75
2023/10/27 08:28:44;;;;;;;;;;;9.70;99.90;;;;;;5081054;27;20009;-75
2023/10/27 08:31:34;;;;;;;;;;;9.70;99.90;;;;;;5102553;27;20064;-76
2023/10/27 08:34:05;;;;;;;;;;;9.80;99.90;;;;;;5019529;27;19927;-75
2023/10/27 08:36:55;;;;;;;;;;;9.90;99.90;;;;;;5088969;27;19984;-75
2023/10/27 08:39:45;;;;;;;;;;;9.90;99.90;;;;;;5122256;27;19922;-75
2023/10/27 08:42:20;;;;;;;;;;;10.00;99.90;;;;;;5105689;27;19934;-75
2023/10/27 08:45:09;;;;;;;;;;;10.10;99.90;;;;;;5094235;27;19969;-76
2023/10/27 08:51:23;;;;;;;;;;;10.30;99.90;;;;;;5090373;28;19923;-75
2023/10/27 08:54:22;;;;;;;;;;;10.40;99.90;;;;;;5081862;28;20366;-76
2023/10/27 09:00:20;;;;;;;;;;;9.50;99.90;;;;;;5088849;28;20052;-75
2023/10/27 09:03:44;;;;;;;;;;;10.70;99.90;;;;;;5074021;28;20039;-75
2023/10/27 09:06:54;;;;;;;;;;;9.70;99.90;;;;;;5085411;27;19923;-75
2023/10/27 09:10:00;;;;;;;;;;;10.80;99.90;;;;;;5062471;28;22008;-75
2023/10/27 09:12:37;;;;;;;;;;;10.90;99.90;;;;;;5075097;28;19990;-75
2023/10/27 09:15:23;;;;;;;;;;;10.90;99.90;;;;;;5038211;28;19943;-75
2023/10/27 09:18:52;;;;;;;;;;;10.90;99.90;;;;;;4969107;28;20335;-76
2023/10/27 09:21:33;;;;;;;;;;;10.90;99.90;;;;;;5037819;28;19928;-76
2023/10/27 09:27:44;;;;;;;;;;;10.90;99.90;;;;;;5059275;28;19951;-75
2023/10/27 09:30:35;;;;;;;;;;;10.90;99.90;;;;;;5026142;28;19974;-75
2023/10/27 09:33:29;;;;;;;;;;;10.90;99.90;;;;;;5039279;28;19944;-74
2023/10/27 09:45:47;;;;;;;;;;;10.90;99.90;;;;;;5113627;27;19927;-75
2023/10/27 09:48:40;;;;;;;;;;;10.90;99.90;;;;;;5153719;27;19930;-75
2023/10/27 09:51:37;;;;;;;;;;;10.90;99.90;;;;;;5113842;27;19970;-74
2023/10/27 09:54:42;;;;;;;;;;;10.90;99.90;;;;;;5107725;27;19972;-75
2023/10/27 09:57:18;;;;;;;;;;;10.90;99.90;;;;;;5126397;27;19923;-74
2023/10/27 10:00:16;;;;;;;;;;;10.90;99.90;;;;;;5068367;28;19974;-75
2023/10/27 10:03:11;;;;;;;;;;;11.00;99.90;;;;;;5064623;28;19939;-76
2023/10/27 10:06:27;;;;;;;;;;;11.10;99.90;;;;;;5058870;28;20398;-75
2023/10/27 10:09:09;;;;;;;;;;;11.10;99.90;;;;;;5066769;28;19936;-75
2023/10/27 10:12:18;;;;;;;;;;;11.10;99.90;;;;;;5084735;27;19918;-75
2023/10/27 10:15:32;;;;;;;;;;;11.10;99.90;;;;;;5068768;28;19929;-75
2023/10/27 10:18:32;;;;;;;;;;;11.10;99.90;;;;;;5067927;28;19931;-75
2023/10/27 10:21:43;;;;;;;;;;;11.20;99.90;;;;;;5046673;28;19929;-75
2023/10/27 10:24:40;;;;;;;;;;;11.20;99.90;;;;;;5033402;28;19969;-75
2023/10/27 10:27:18;;;;;;;;;;;11.20;99.90;;;;;;5141141;27;19968;-77
2023/10/27 10:30:25;;;;;;;;;;;11.20;99.90;;;;;;5109128;27;19927;-74
2023/10/27 10:33:16;;;;;;;;;;;11.20;99.90;;;;;;5042176;28;19952;-77
2023/10/27 10:35:50;;;;;;;;;;;11.30;99.90;;;;;;5125292;27;19923;-74
2023/10/27 10:38:47;;;;;;;;;;;11.30;99.90;;;;;;5116703;27;20389;-75
2023/10/27 10:42:03;;;;;;;;;;;11.30;99.90;;;;;;5133612;27;19938;-75
2023/10/27 10:44:36;;;;;;;;;;;11.30;99.90;;;;;;5100925;27;19928;-76
2023/10/27 10:47:18;;;;;;;;;;;11.20;99.90;;;;;;5090262;27;19931;-75
2023/10/27 10:49:58;;;;;;;;;;;11.20;99.90;;;;;;5101134;27;19939;-76
2023/10/27 10:52:55;;;;;;;;;;;11.20;99.90;;;;;;5127041;27;19981;-75
2023/10/27 10:55:38;;;;;;;;;;;11.30;99.90;;;;;;5113940;27;19923;-75
2023/10/27 10:58:07;;;;;;;;;;;11.30;99.90;;;;;;5120534;27;20060;-75
2023/10/27 11:00:58;;;;;;;;;;;11.30;99.90;;;;;;5091253;27;20520;-77
2023/10/27 11:03:38;;;;;;;;;;;11.30;99.90;;;;;;5115010;27;19923;-75
2023/10/27 11:06:18;;;;;;;;;;;11.40;99.90;;;;;;5095404;27;20006;-75
2023/10/27 11:08:47;;;;;;;;;;;11.40;99.90;;;;;;5155583;27;20397;-74
2023/10/27 11:11:59;;;;;;;;;;;11.40;99.90;;;;;;5140035;27;20384;-75
2023/10/27 11:14:42;;;;;;;;;;;11.40;99.90;;;;;;5121394;27;19970;-77
2023/10/27 11:17:20;;;;;;;;;;;11.50;99.90;;;;;;5154412;27;19923;-74
2023/10/27 11:20:00;;;;;;;;;;;11.50;99.90;;;;;;5152933;27;19927;-74
2023/10/27 11:22:35;;;;;;;;;;;11.50;99.90;;;;;;5132609;27;19971;-76
2023/10/27 11:25:34;;;;;;;;;;;11.50;99.90;;;;;;5137241;27;19930;-74
2023/10/27 11:28:49;;;;;;;;;;;11.50;99.90;;;;;;5123843;27;19937;-75
2023/10/27 11:31:45;;;;;;;;;;;11.50;99.90;;;;;;5142179;27;20026;-76
2023/10/27 11:34:32;;;;;;;;;;;11.60;99.90;;;;;;5133909;27;20062;-74
2023/10/27 11:37:41;;;;;;;;;;;11.50;99.90;;;;;;5121240;27;19974;-75
2023/10/27 11:40:46;;;;;;;;;;;11.50;99.90;;;;;;5152052;27;19964;-74
2023/10/27 11:43:27;;;;;;;;;;;11.50;99.90;;;;;;5095730;27;20027;-80
2023/10/27 11:46:25;;;;;;;;;;;11.50;99.90;;;;;;5154326;27;19934;-76
2023/10/27 11:49:21;;;;;;;;;;;11.50;99.90;;;;;;5061401;28;19932;-75
2023/10/27 11:52:14;;;;;;;;;;;11.50;99.90;;;;;;5077182;28;20158;-75
2023/10/27 11:55:10;;;;;;;;;;;11.40;99.90;;;;;;5058511;28;19932;-76
2023/10/27 11:58:12;;;;;;;;;;;11.40;99.90;;;;;;5079043;28;19972;-74
2023/10/27 12:01:03;;;;;;;;;;;11.40;99.90;;;;;;5148793;27;20433;-75
2023/10/27 12:04:11;;;;;;;;;;;11.40;99.90;;;;;;5113106;27;19946;-74
2023/10/27 12:06:53;;;;;;;;;;;11.40;99.90;;;;;;5129367;27;19937;-74
2023/10/27 12:10:09;;;;;;;;;;;11.30;99.90;;;;;;5153346;27;20034;-76
2023/10/27 12:12:50;;;;;;;;;;;11.30;99.90;;;;;;5134711;27;20250;-75
2023/10/27 12:15:43;;;;;;;;;;;11.30;99.90;;;;;;5126343;27;19983;-74
2023/10/27 12:18:55;;;;;;;;;;;;;;;;;;;;;
2023/10/27 12:21:52;;;;;;;;;;;11.20;99.90;;;;;;5151071;27;19967;-74
2023/10/27 12:27:29;;;;;;;;;;;11.10;99.90;;;;;;5133676;27;19935;-75
2023/10/27 12:30:41;;;;;;;;;;;11.10;99.90;;;;;;5126282;27;19926;-75
2023/10/27 12:33:46;;;;;;;;;;;11.10;99.90;;;;;;5154674;27;19923;-73
2023/10/27 12:39:53;;;;;;;;;;;11.10;99.90;;;;;;5154037;27;20026;-75
2023/10/27 12:42:39;;;;;;;;;;;11.10;99.90;;;;;;5106380;27;19991;-74
2023/10/27 12:45:46;;;;;;;;;;;11.10;99.90;;;;;;5159429;27;19922;-74
2023/10/27 12:49:10;;;;;;;;;;;11.10;99.90;;;;;;5097465;27;19926;-74
2023/10/27 12:55:54;;;;;;;;;;;11.10;99.90;;;;;;5127401;27;19962;-74
2023/10/27 13:01:34;;;;;;;;;;;11.00;99.90;;;;;;5157412;27;20286;-74
2023/10/27 13:04:55;;;;;;;;;;;11.00;99.90;;;;;;5154436;27;19941;-73
2023/10/27 13:08:22;;;;;;;;;;;11.00;99.90;;;;;;5138799;27;19923;-74
2023/10/27 13:11:40;;;;;;;;;;;10.90;99.90;;;;;;5045456;28;19960;-74
2023/10/27 13:21:14;;;;;;;;;;;10.90;99.90;;;;;;5158570;27;20013;-74
2023/10/27 13:24:36;;;;;;;;;;;10.90;99.90;;;;;;5156231;27;19929;-76
2023/10/27 13:30:39;;;;;;;;;;;10.90;99.90;;;;;;5156739;27;19973;-76
2023/10/27 13:34:09;;;;;;;;;;;10.80;99.90;;;;;;5150428;27;19938;-75
2023/10/27 13:37:36;;;;;;;;;;;10.80;99.90;;;;;;5157692;27;20278;-75
2023/10/27 13:40:41;;;;;;;;;;;10.90;99.90;;;;;;5152968;27;20354;-77
2023/10/27 13:43:38;;;;;;;;;;;10.90;99.90;;;;;;5155523;27;19927;-76
2023/10/27 13:46:47;;;;;;;;;;;10.90;99.90;;;;;;5142620;27;19965;-75
2023/10/27 13:49:42;;;;;;;;;;;10.90;99.90;;;;;;5146494;27;20134;-76
2023/10/27 13:52:29;;;;;;;;;;;10.90;99.90;;;;;;5125583;27;20029;-76
2023/10/27 13:55:26;;;;;;;;;;;10.90;99.90;;;;;;5156534;27;19968;-75
2023/10/27 14:04:38;;;;;;;;;;;10.80;99.90;;;;;;5156573;27;19925;-75
2023/10/27 14:07:20;;;;;;;;;;;10.80;99.90;;;;;;5096350;28;19927;-75
2023/10/27 14:10:26;;;;;;;;;;;10.90;99.90;;;;;;5100765;28;19962;-76
2023/10/27 14:17:00;;;;;;;;;;;10.90;99.90;;;;;;5094310;28;19938;-75
2023/10/27 14:20:26;;;;;;;;;;;10.90;99.90;;;;;;5084107;28;20424;-77
2023/10/27 14:23:26;;;;;;;;;;;10.80;99.90;;;;;;5098708;28;19973;-75
2023/10/27 14:25:57;;;;;;;;;;;10.70;99.90;;;;;;5084118;28;20337;-75
2023/10/27 14:32:27;;;;;;;;;;;12.10;99.90;;;;;;5059939;28;19959;-75
2023/10/27 14:35:16;;;;;;;;;;;10.80;99.90;;;;;;5097705;28;20183;-75
2023/10/27 14:44:32;;;;;;;;;;;10.80;99.90;;;;;;5054023;28;19956;-77
2023/10/27 14:46:58;;;;;;;;;;;10.80;99.90;;;;;;5111047;28;19919;-85
2023/10/27 14:49:25;;;;;;;;;;;10.80;99.90;;;;;;5086579;28;19963;-76
2023/10/27 14:52:22;;;;;;;;;;;10.80;99.90;;;;;;5087994;28;19967;-77
2023/10/27 14:54:58;;;;;;;;;;;10.80;99.90;;;;;;5104699;28;19928;-79
2023/10/27 14:57:25;;;;;;;;;;;10.80;99.90;;;;;;5059772;28;19928;-76
2023/10/27 15:00:12;;;;;;;;;;;10.80;99.90;;;;;;5016596;28;20034;-76
2023/10/27 15:03:00;;;;;;;;;;;10.80;99.90;;;;;;5008411;28;19934;-77
2023/10/27 15:06:19;;;;;;;;;;;10.80;99.90;;;;;;5010306;28;19940;-78
2023/10/27 15:09:23;;;;;;;;;;;10.80;99.90;;;;;;5003330;28;19971;-75
2023/10/27 15:12:12;;;;;;;;;;;10.80;99.90;;;;;;4992842;28;20012;-76
2023/10/27 15:18:29;;;;;;;;;;;10.70;99.90;;;;;;4901876;28;20176;-75
2023/10/27 15:24:52;;;;;;;;;;;10.70;99.90;;;;;;4946648;29;19927;-76
2023/10/27 15:27:25;;;;;;;;;;;10.80;99.90;;;;;;4942071;29;20861;-77
2023/10/27 15:38:54;;;;;;;;;;;10.70;99.90;;;;;;5080587;27;20367;-75
2023/10/27 15:41:38;;;;;;;;;;;10.60;99.90;;;;;;5100724;27;20344;-77
2023/10/27 15:44:38;;;;;;;;;;;10.60;99.90;;;;;;5115774;27;19996;-76
2023/10/27 15:50:56;;;;;;;;;;;10.60;99.90;;;;;;5115215;27;20324;-75
2023/10/27 15:57:07;;;;;;;;;;;10.50;99.90;;;;;;5106479;27;19927;-76
2023/10/27 15:59:50;;;;;;;;;;;10.50;99.90;;;;;;5093384;27;19930;-75
2023/10/27 16:02:46;;;;;;;;;;;10.50;99.90;;;;;;5095066;27;20428;-75
2023/10/27 16:06:33;;;;;;;;;;;10.50;99.90;;;;;;5111966;27;20056;-75
2023/10/27 16:12:59;;;;;;;;;;;10.50;99.90;;;;;;5097076;27;19924;-76
2023/10/27 16:16:19;;;;;;;;;;;10.40;99.90;;;;;;5109492;27;20457;-77
2023/10/27 16:22:11;;;;;;;;;;;10.40;99.90;;;;;;5093930;27;19937;-76
2023/10/27 16:24:59;;;;;;;;;;;10.40;99.90;;;;;;5087553;27;19980;-75
2023/10/27 16:28:05;;;;;;;;;;;10.30;99.90;;;;;;5081315;27;19927;-76
2023/10/27 16:34:02;;;;;;;;;;;10.30;99.90;;;;;;5054011;27;19927;-75
2023/10/27 16:37:05;;;;;;;;;;;10.30;99.90;;;;;;5101370;27;19927;-76
2023/10/27 16:39:36;;;;;;;;;;;10.30;99.90;;;;;;5099893;27;20456;-76
2023/10/27 16:43:22;;;;;;;;;;;9.20;99.90;;;;;;5108118;27;19932;-76
2023/10/27 16:46:23;;;;;;;;;;;10.30;99.90;;;;;;5102643;27;19954;-76
2023/10/27 16:49:39;;;;;;;;;;;10.30;99.90;;;;;;5057910;27;19930;-74
2023/10/27 16:56:17;;;;;;;;;;;10.30;99.90;;;;;;5100714;27;20461;-77
2023/10/27 16:58:52;;;;;;;;;;;10.20;99.90;;;;;;5084114;27;19996;-75
2023/10/27 17:01:19;;;;;;;;;;;10.20;99.90;;;;;;5111788;27;19933;-75
2023/10/27 17:04:02;;;;;;;;;;;10.20;99.90;;;;;;5152717;27;20026;-76
2023/10/27 17:06:53;;;;;;;;;;;10.20;99.90;;;;;;5150019;27;20026;-76
2023/10/27 17:09:41;;;;;;;;;;;10.20;99.90;;;;;;5152790;27;19995;-76
2023/10/27 17:12:15;;;;;;;;;;;10.20;99.90;;;;;;5153431;27;19942;-75
2023/10/27 17:15:05;;;;;;;;;;;10.20;99.90;;;;;;5151300;27;19927;-76
2023/10/27 17:17:56;;;;;;;;;;;10.20;99.90;;;;;;5120633;27;20419;-76
2023/10/27 17:21:02;;;;;;;;;;;10.20;99.90;;;;;;5137787;27;19926;-76
2023/10/27 17:23:44;;;;;;;;;;;10.10;99.90;;;;;;5133316;27;20392;-75
2023/10/27 17:26:37;;;;;;;;;;;10.20;99.90;;;;;;5139487;27;20380;-75
2023/10/27 17:29:34;;;;;;;;;;;10.10;99.90;;;;;;5121978;27;19954;-74
2023/10/27 17:32:11;;;;;;;;;;;10.10;99.90;;;;;;5150892;27;19927;-76
2023/10/27 17:35:02;;;;;;;;;;;10.10;99.90;;;;;;5136417;27;19930;-75
2023/10/27 17:38:20;;;;;;;;;;;10.10;99.90;;;;;;5151836;27;19922;-75
2023/10/27 17:41:15;;;;;;;;;;;10.10;99.90;;;;;;5151235;27;20369;-75
2023/10/27 17:44:12;;;;;;;;;;;10.10;99.90;;;;;;5138191;27;19974;-75
2023/10/27 17:46:58;;;;;;;;;;;10.10;99.90;;;;;;5106647;27;19931;-76
2023/10/27 17:49:53;;;;;;;;;;;10.00;99.90;;;;;;5118745;27;19930;-75
2023/10/27 17:52:22;;;;;;;;;;;10.00;99.90;;;;;;5120101;27;19933;-75
2023/10/27 17:55:13;;;;;;;;;;;10.10;99.90;;;;;;5136196;27;19937;-76
2023/10/27 17:57:53;;;;;;;;;;;10.10;99.90;;;;;;5121741;27;20029;-76
2023/10/27 18:00:31;;;;;;;;;;;10.10;99.90;;;;;;5121279;27;20041;-76
2023/10/27 18:03:13;;;;;;;;;;;10.10;99.90;;;;;;5132384;27;20065;-75
2023/10/27 18:06:01;;;;;;;;;;;10.00;99.90;;;;;;5151505;27;21268;-76
2023/10/27 18:08:55;;;;;;;;;;;10.10;99.90;;;;;;5110237;27;19924;-75
2023/10/27 18:11:34;;;;;;;;;;;10.00;99.90;;;;;;5110407;27;20508;-75
2023/10/27 18:14:22;;;;;;;;;;;10.30;99.90;;;;;;5096258;27;19975;-75
2023/10/27 18:17:16;;;;;;;;;;;10.10;99.90;;;;;;5093638;27;19928;-76
2023/10/27 18:20:05;;;;;;;;;;;10.10;99.90;;;;;;5066245;28;20428;-75
2023/10/27 18:22:53;;;;;;;;;;;9.30;99.90;;;;;;5093527;27;19928;-76
2023/10/27 18:28:54;;;;;;;;;;;10.00;99.90;;;;;;5110756;27;19931;-77
2023/10/27 18:31:58;;;;;;;;;;;10.00;99.90;;;;;;5109417;27;20263;-75
2023/10/27 18:34:38;;;;;;;;;;;10.00;99.90;;;;;;5073614;28;19931;-76
2023/10/27 18:37:44;;;;;;;;;;;10.00;99.90;;;;;;5056528;28;20346;-75
2023/10/27 18:40:23;;;;;;;;;;;10.00;99.90;;;;;;5106975;27;19973;-76
2023/10/27 18:42:50;;;;;;;;;;;10.10;99.90;;;;;;5060977;28;19987;-76
2023/10/27 18:45:20;;;;;;;;;;;10.00;99.90;;;;;;5081895;28;19924;-75
2023/10/27 18:48:20;;;;;;;;;;;10.00;99.90;;;;;;5063971;28;19931;-77
2023/10/27 18:51:11;;;;;;;;;;;10.10;99.90;;;;;;5076144;28;19932;-76
2023/10/27 18:54:03;;;;;;;;;;;10.00;99.90;;;;;;5075316;28;19928;-75
2023/10/27 18:56:51;;;;;;;;;;;10.10;99.90;;;;;;5018248;28;20027;-76
2023/10/27 18:59:34;;;;;;;;;;;10.00;99.90;;;;;;5018526;28;20489;-76
2023/10/27 19:02:16;;;;;;;;;;;10.00;99.90;;;;;;4982592;28;20344;-75
2023/10/27 19:05:03;;;;;;;;;;;10.00;99.90;;;;;;4986752;28;19951;-76
2023/10/27 19:07:33;;;;;;;;;;;10.00;99.90;;;;;;5034918;28;19954;-76
2023/10/27 19:10:19;;;;;;;;;;;10.10;99.90;;;;;;5024403;28;19925;-76
2023/10/27 19:13:01;;;;;;;;;;;10.10;99.90;;;;;;5022689;28;19932;-75
2023/10/27 19:15:53;;;;;;;;;;;10.00;99.90;;;;;;5034585;28;19979;-75
2023/10/27 19:19:29;;;;;;;;;;;10.00;99.90;;;;;;5077405;28;20293;-76
2023/10/27 19:21:55;;;;;;;;;;;10.10;99.90;;;;;;5057451;28;19967;-76
2023/10/27 19:24:47;;;;;;;;;;;10.10;99.90;;;;;;5087178;27;19939;-76
2023/10/27 19:27:39;;;;;;;;;;;10.00;99.90;;;;;;5091604;27;19947;-76
2023/10/27 19:30:20;;;;;;;;;;;10.10;99.90;;;;;;5066786;27;20082;-76
2023/10/27 19:32:53;;;;;;;;;;;10.10;99.90;;;;;;5065986;27;20539;-76
2023/10/27 19:35:54;;;;;;;;;;;10.10;99.90;;;;;;5112393;27;19952;-75
2023/10/27 19:38:20;;;;;;;;;;;10.10;99.90;;;;;;5086694;27;20028;-76
2023/10/27 19:40:59;;;;;;;;;;;10.10;99.90;;;;;;5104307;27;19930;-76
2023/10/27 19:43:30;;;;;;;;;;;10.10;99.90;;;;;;5128535;27;19927;-77
2023/10/27 19:46:07;;;;;;;;;;;10.10;99.90;;;;;;5127522;27;19929;-76
2023/10/27 19:48:41;;;;;;;;;;;10.10;99.90;;;;;;5133213;27;20507;-76
2023/10/27 19:51:12;;;;;;;;;;;10.10;99.90;;;;;;5152798;27;20070;-76
2023/10/27 19:53:52;;;;;;;;;;;10.10;99.90;;;;;;5135985;27;19980;-77
2023/10/27 19:56:18;;;;;;;;;;;10.10;99.90;;;;;;5121741;27;20452;-77
2023/10/27 19:58:54;;;;;;;;;;;10.10;99.90;;;;;;5144877;27;19927;-77
2023/10/27 20:01:26;;;;;;;;;;;10.10;99.90;;;;;;5108152;27;19927;-77
2023/10/27 20:04:26;;;;;;;;;;;10.10;99.90;;;;;;5155998;27;20506;-77
2023/10/27 20:06:55;;;;;;;;;;;10.10;99.90;;;;;;5153221;27;21427;-76
2023/10/27 20:09:22;;;;;;;;;;;10.10;99.90;;;;;;5125189;27;20381;-76
2023/10/27 20:12:22;;;;;;;;;;;10.10;99.90;;;;;;5141110;27;19943;-77
2023/10/27 20:14:48;;;;;;;;;;;10.10;99.90;;;;;;5115230;27;20792;-76